sensor_id;sensor_type;location;lat;lon;timestamp;pressure;altitude;pressure_sealevel;temperature;humidity
75646;BME280;64237;52.438;13.240;2023-03-31T00:01:28;100093.38;;;9.67;85.36
75646;BME280;64237;52.438;13.240;2023-03-31T00:03:54;100088.88;;;9.60;87.52
75646;BME280;64237;52.438;13.240;2023-03-31T00:06:28;100101.25;;;9.58;87.64
75646;BME280;64237;52.438;13.240;2023-03-31T00:08:54;100090.41;;;9.51;86.93
75646;BME280;64237;52.438;13.240;2023-03-31T00:11:20;100098.25;;;9.59;86.27
75646;BME280;64237;52.438;13.240;2023-03-31T00:13:46;100093.31;;;9.61;86.45
75646;BME280;64237;52.438;13.240;2023-03-31T00:16:12;100089.97;;;9.59;87.08
75646;BME280;64237;52.438;13.240;2023-03-31T00:18:38;100087.44;;;9.58;87.25
75646;BME280;64237;52.438;13.240;2023-03-31T00:21:16;100087.19;;;9.59;86.74
75646;BME280;64237;52.438;13.240;2023-03-31T00:24:02;100073.84;;;9.51;86.65
75646;BME280;64237;52.438;13.240;2023-03-31T00:26:29;100085.03;;;9.61;86.63
75646;BME280;64237;52.438;13.240;2023-03-31T00:28:55;100071.63;;;9.70;85.58
75646;BME280;64237;52.438;13.240;2023-03-31T00:31:21;100066.28;;;9.63;85.54
75646;BME280;64237;52.438;13.240;2023-03-31T00:33:47;100068.78;;;9.65;85.41
75646;BME280;64237;52.438;13.240;2023-03-31T00:36:13;100072.28;;;9.60;87.33
75646;BME280;64237;52.438;13.240;2023-03-31T00:38:48;100071.63;;;9.53;86.45
75646;BME280;64237;52.438;13.240;2023-03-31T00:41:16;100072.31;;;9.44;86.61
75646;BME280;64237;52.438;13.240;2023-03-31T00:49:27;100065.38;;;9.41;86.09
75646;BME280;64237;52.438;13.240;2023-03-31T00:51:59;100065.38;;;9.41;85.70
75646;BME280;64237;52.438;13.240;2023-03-31T00:54:29;100065.78;;;9.33;85.59
75646;BME280;64237;52.438;13.240;2023-03-31T00:56:56;100061.91;;;9.29;85.47
75646;BME280;64237;52.438;13.240;2023-03-31T00:59:27;100053.91;;;9.33;86.00
75646;BME280;64237;52.438;13.240;2023-03-31T01:01:55;100055.78;;;9.27;86.25
75646;BME280;64237;52.438;13.240;2023-03-31T01:04:23;100061.31;;;9.27;86.06
75646;BME280;64237;52.438;13.240;2023-03-31T01:07:02;100042.41;;;9.19;85.95
75646;BME280;64237;52.438;13.240;2023-03-31T01:09:30;100045.75;;;9.21;85.88
75646;BME280;64237;52.438;13.240;2023-03-31T01:12:03;100032.06;;;9.09;86.73
75646;BME280;64237;52.438;13.240;2023-03-31T01:14:30;100036.31;;;9.00;87.22
75646;BME280;64237;52.438;13.240;2023-03-31T01:16:56;100016.25;;;9.05;86.98
75646;BME280;64237;52.438;13.240;2023-03-31T01:19:52;100013.97;;;9.02;86.94
75646;BME280;64237;52.438;13.240;2023-03-31T01:22:44;100021.66;;;9.00;86.27
75646;BME280;64237;52.438;13.240;2023-03-31T01:28:02;100011.13;;;8.97;86.53
75646;BME280;64237;52.438;13.240;2023-03-31T01:30:36;100008.63;;;8.95;87.46
75646;BME280;64237;52.438;13.240;2023-03-31T01:39:10;100003.25;;;8.88;89.12
75646;BME280;64237;52.438;13.240;2023-03-31T01:47:00;99998.75;;;9.16;85.46
75646;BME280;64237;52.438;13.240;2023-03-31T01:57:26;99975.69;;;9.05;87.18
75646;BME280;64237;52.438;13.240;2023-03-31T02:00:02;99989.25;;;9.07;86.64
75646;BME280;64237;52.438;13.240;2023-03-31T02:02:31;99984.22;;;9.04;87.99
75646;BME280;64237;52.438;13.240;2023-03-31T02:05:01;99984.31;;;9.09;87.59
75646;BME280;64237;52.438;13.240;2023-03-31T02:07:38;99977.03;;;9.03;87.63
75646;BME280;64237;52.438;13.240;2023-03-31T02:10:08;99965.31;;;8.96;88.86
75646;BME280;64237;52.438;13.240;2023-03-31T02:12:35;99966.59;;;9.05;87.57
75646;BME280;64237;52.438;13.240;2023-03-31T02:15:04;99963.31;;;9.08;87.63
75646;BME280;64237;52.438;13.240;2023-03-31T02:17:32;99970.50;;;9.09;88.11
75646;BME280;64237;52.438;13.240;2023-03-31T02:20:06;99966.34;;;9.06;88.44
75646;BME280;64237;52.438;13.240;2023-03-31T02:22:38;99966.63;;;9.10;88.49
75646;BME280;64237;52.438;13.240;2023-03-31T02:25:09;99964.47;;;9.12;87.59
75646;BME280;64237;52.438;13.240;2023-03-31T02:27:39;99957.28;;;9.11;87.39
75646;BME280;64237;52.438;13.240;2023-03-31T02:30:08;99957.28;;;9.11;87.31
75646;BME280;64237;52.438;13.240;2023-03-31T02:32:38;99951.84;;;9.16;87.59
75646;BME280;64237;52.438;13.240;2023-03-31T02:35:08;99942.94;;;9.09;88.50
75646;BME280;64237;52.438;13.240;2023-03-31T02:37:34;99945.16;;;9.12;88.55
75646;BME280;64237;52.438;13.240;2023-03-31T02:40:04;99947.41;;;9.15;87.21
75646;BME280;64237;52.438;13.240;2023-03-31T02:42:30;99943.56;;;9.16;87.38
75646;BME280;64237;52.438;13.240;2023-03-31T02:45:33;99943.38;;;9.22;87.14
75646;BME280;64237;52.438;13.240;2023-03-31T02:47:52;99949.75;;;9.23;87.82
75646;BME280;64237;52.438;13.240;2023-03-31T02:50:20;99938.63;;;9.18;88.50
75646;BME280;64237;52.438;13.240;2023-03-31T02:55:39;99927.34;;;9.19;87.84
75646;BME280;64237;52.438;13.240;2023-03-31T02:58:43;99937.16;;;9.32;86.49
75646;BME280;64237;52.438;13.240;2023-03-31T03:01:38;99929.97;;;9.31;88.12
75646;BME280;64237;52.438;13.240;2023-03-31T03:06:58;99926.66;;;9.29;87.50
75646;BME280;64237;52.438;13.240;2023-03-31T03:14:59;99920.34;;;9.34;87.36
75646;BME280;64237;52.438;13.240;2023-03-31T03:20:05;99911.44;;;9.26;87.92
75646;BME280;64237;52.438;13.240;2023-03-31T03:22:36;99913.41;;;9.31;87.74
75646;BME280;64237;52.438;13.240;2023-03-31T03:25:04;99902.44;;;9.36;86.13
75646;BME280;64237;52.438;13.240;2023-03-31T03:27:29;99893.66;;;9.39;86.61
75646;BME280;64237;52.438;13.240;2023-03-31T03:29:55;99897.81;;;9.42;85.93
75646;BME280;64237;52.438;13.240;2023-03-31T03:32:20;99895.31;;;9.40;86.23
75646;BME280;64237;52.438;13.240;2023-03-31T03:34:46;99889.28;;;9.43;86.73
75646;BME280;64237;52.438;13.240;2023-03-31T03:37:11;99880.25;;;9.48;86.86
75646;BME280;64237;52.438;13.240;2023-03-31T03:39:36;99884.09;;;9.47;86.77
75646;BME280;64237;52.438;13.240;2023-03-31T03:42:02;99875.56;;;9.48;86.89
75646;BME280;64237;52.438;13.240;2023-03-31T03:44:28;99880.44;;;9.41;86.47
75646;BME280;64237;52.438;13.240;2023-03-31T03:46:53;99876.06;;;9.45;87.40
75646;BME280;64237;52.438;13.240;2023-03-31T03:49:19;99869.97;;;9.43;87.08
75646;BME280;64237;52.438;13.240;2023-03-31T03:51:44;99862.69;;;9.37;86.98
75646;BME280;64237;52.438;13.240;2023-03-31T03:54:10;99868.34;;;9.47;87.89
75646;BME280;64237;52.438;13.240;2023-03-31T03:56:35;99866.03;;;9.39;88.34
75646;BME280;64237;52.438;13.240;2023-03-31T03:59:01;99867.38;;;9.37;87.66
75646;BME280;64237;52.438;13.240;2023-03-31T04:01:26;99863.03;;;9.41;87.18
75646;BME280;64237;52.438;13.240;2023-03-31T04:03:51;99851.66;;;9.37;86.70
75646;BME280;64237;52.438;13.240;2023-03-31T04:06:17;99862.91;;;9.31;88.22
75646;BME280;64237;52.438;13.240;2023-03-31T04:08:42;99857.41;;;9.31;88.09
75646;BME280;64237;52.438;13.240;2023-03-31T04:11:14;99860.41;;;9.29;87.80
75646;BME280;64237;52.438;13.240;2023-03-31T04:13:41;99857.25;;;9.20;88.16
75646;BME280;64237;52.438;13.240;2023-03-31T04:16:06;99855.19;;;9.11;88.78
75646;BME280;64237;52.438;13.240;2023-03-31T04:18:32;99846.03;;;9.05;88.50
75646;BME280;64237;52.438;13.240;2023-03-31T04:20:57;99843.59;;;9.09;88.26
75646;BME280;64237;52.438;13.240;2023-03-31T04:23:33;99849.81;;;9.21;87.48
75646;BME280;64237;52.438;13.240;2023-03-31T04:26:03;99835.34;;;9.14;88.54
75646;BME280;64237;52.438;13.240;2023-03-31T04:28:33;99830.09;;;9.12;88.35
75646;BME280;64237;52.438;13.240;2023-03-31T04:31:00;99835.03;;;9.10;89.19
75646;BME280;64237;52.438;13.240;2023-03-31T04:33:26;99828.38;;;9.06;87.67
75646;BME280;64237;52.438;13.240;2023-03-31T04:35:52;99836.97;;;9.10;88.21
75646;BME280;64237;52.438;13.240;2023-03-31T04:38:19;99827.56;;;9.06;88.13
75646;BME280;64237;52.438;13.240;2023-03-31T04:40:48;99824.22;;;9.04;88.30
75646;BME280;64237;52.438;13.240;2023-03-31T04:43:15;99823.03;;;9.00;88.50
75646;BME280;64237;52.438;13.240;2023-03-31T04:45:41;99822.28;;;9.04;87.67
75646;BME280;64237;52.438;13.240;2023-03-31T04:48:06;99825.56;;;9.01;88.52
75646;BME280;64237;52.438;13.240;2023-03-31T04:50:32;99812.84;;;9.00;88.64
75646;BME280;64237;52.438;13.240;2023-03-31T04:52:58;99816.50;;;9.06;87.85
75646;BME280;64237;52.438;13.240;2023-03-31T04:55:23;99810.41;;;9.04;88.48
75646;BME280;64237;52.438;13.240;2023-03-31T04:57:49;99809.31;;;9.05;87.76
75646;BME280;64237;52.438;13.240;2023-03-31T05:00:16;99803.16;;;8.98;87.68
75646;BME280;64237;52.438;13.240;2023-03-31T05:02:41;99793.78;;;8.99;87.97
75646;BME280;64237;52.438;13.240;2023-03-31T05:05:07;99783.84;;;8.98;87.77
75646;BME280;64237;52.438;13.240;2023-03-31T05:07:32;99782.44;;;8.95;88.39
75646;BME280;64237;52.438;13.240;2023-03-31T05:09:58;99775.13;;;8.84;89.26
75646;BME280;64237;52.438;13.240;2023-03-31T05:12:23;99777.06;;;8.83;88.93
75646;BME280;64237;52.438;13.240;2023-03-31T05:14:49;99781.09;;;8.98;87.75
75646;BME280;64237;52.438;13.240;2023-03-31T05:17:15;99781.41;;;9.01;87.55
75646;BME280;64237;52.438;13.240;2023-03-31T05:19:42;99776.59;;;9.13;86.65
75646;BME280;64237;52.438;13.240;2023-03-31T05:22:07;99782.34;;;9.12;86.91
75646;BME280;64237;52.438;13.240;2023-03-31T05:24:33;99775.13;;;9.06;87.38
75646;BME280;64237;52.438;13.240;2023-03-31T05:26:58;99771.28;;;9.07;87.77
75646;BME280;64237;52.438;13.240;2023-03-31T05:29:23;99757.50;;;9.07;87.55
75646;BME280;64237;52.438;13.240;2023-03-31T05:31:49;99750.41;;;9.16;87.04
75646;BME280;64237;52.438;13.240;2023-03-31T05:34:15;99756.56;;;9.23;87.19
75646;BME280;64237;52.438;13.240;2023-03-31T05:36:41;99759.97;;;9.30;87.67
75646;BME280;64237;52.438;13.240;2023-03-31T05:39:08;99761.06;;;9.29;87.28
75646;BME280;64237;52.438;13.240;2023-03-31T05:41:34;99748.94;;;9.30;87.10
75646;BME280;64237;52.438;13.240;2023-03-31T05:43:59;99752.28;;;9.37;86.69
75646;BME280;64237;52.438;13.240;2023-03-31T05:46:26;99751.97;;;9.34;87.42
75646;BME280;64237;52.438;13.240;2023-03-31T05:48:52;99745.16;;;9.41;85.84
75646;BME280;64237;52.438;13.240;2023-03-31T05:51:17;99737.19;;;9.45;85.81
75646;BME280;64237;52.438;13.240;2023-03-31T05:53:42;99726.47;;;9.48;85.72
75646;BME280;64237;52.438;13.240;2023-03-31T05:56:08;99739.75;;;9.51;85.42
75646;BME280;64237;52.438;13.240;2023-03-31T05:58:34;99730.31;;;9.47;85.31
75646;BME280;64237;52.438;13.240;2023-03-31T06:01:05;99734.19;;;9.46;85.71
75646;BME280;64237;52.438;13.240;2023-03-31T06:03:36;99735.53;;;9.44;85.72
75646;BME280;64237;52.438;13.240;2023-03-31T06:06:03;99728.13;;;9.49;84.80
75646;BME280;64237;52.438;13.240;2023-03-31T06:08:30;99728.13;;;9.49;84.79
75646;BME280;64237;52.438;13.240;2023-03-31T06:10:56;99716.47;;;9.42;85.62
75646;BME280;64237;52.438;13.240;2023-03-31T06:13:22;99722.50;;;9.39;85.40
75646;BME280;64237;52.438;13.240;2023-03-31T06:15:55;99705.69;;;9.41;85.80
75646;BME280;64237;52.438;13.240;2023-03-31T06:18:22;99701.09;;;9.51;85.26
75646;BME280;64237;52.438;13.240;2023-03-31T06:20:48;99701.75;;;9.63;84.38
75646;BME280;64237;52.438;13.240;2023-03-31T06:23:13;99697.91;;;9.65;84.46
75646;BME280;64237;52.438;13.240;2023-03-31T06:25:39;99696.22;;;9.63;84.76
75646;BME280;64237;52.438;13.240;2023-03-31T06:28:04;99692.38;;;9.65;84.63
75646;BME280;64237;52.438;13.240;2023-03-31T06:30:33;99686.84;;;9.65;85.35
75646;BME280;64237;52.438;13.240;2023-03-31T06:32:59;99691.38;;;9.81;83.69
75646;BME280;64237;52.438;13.240;2023-03-31T06:35:24;99683.47;;;9.89;83.45
75646;BME280;64237;52.438;13.240;2023-03-31T06:37:50;99677.75;;;10.06;83.36
75646;BME280;64237;52.438;13.240;2023-03-31T06:40:15;99677.09;;;10.26;81.82
75646;BME280;64237;52.438;13.240;2023-03-31T06:42:41;99677.44;;;10.35;81.59
75646;BME280;64237;52.438;13.240;2023-03-31T06:45:07;99671.38;;;10.43;81.35
75646;BME280;64237;52.438;13.240;2023-03-31T06:47:32;99667.56;;;10.54;81.51
75646;BME280;64237;52.438;13.240;2023-03-31T06:49:58;99667.06;;;10.67;80.63
75646;BME280;64237;52.438;13.240;2023-03-31T06:52:23;99675.13;;;10.79;79.54
75646;BME280;64237;52.438;13.240;2023-03-31T06:54:48;99668.22;;;10.81;80.30
75646;BME280;64237;52.438;13.240;2023-03-31T06:57:14;99669.34;;;10.90;79.74
75646;BME280;64237;52.438;13.240;2023-03-31T06:59:39;99656.09;;;10.97;79.55
75646;BME280;64237;52.438;13.240;2023-03-31T07:02:05;99665.56;;;12.18;87.98
75646;BME280;64237;52.438;13.240;2023-03-31T07:04:30;99654.03;;;12.65;75.23
75646;BME280;64237;52.438;13.240;2023-03-31T07:06:58;99655.56;;;12.32;75.24
75646;BME280;64237;52.438;13.240;2023-03-31T07:09:23;99653.66;;;11.97;74.98
75646;BME280;64237;52.438;13.240;2023-03-31T07:11:49;99652.59;;;11.83;75.21
75646;BME280;64237;52.438;13.240;2023-03-31T07:14:14;99645.66;;;11.65;77.00
75646;BME280;64237;52.438;13.240;2023-03-31T07:16:40;99648.41;;;11.71;75.83
75646;BME280;64237;52.438;13.240;2023-03-31T07:19:06;99641.47;;;11.73;75.67
75646;BME280;64237;52.438;13.240;2023-03-31T07:21:32;99646.50;;;11.76;76.47
75646;BME280;64237;52.438;13.240;2023-03-31T07:23:58;99634.84;;;11.89;75.57
75646;BME280;64237;52.438;13.240;2023-03-31T07:26:23;99635.09;;;11.98;74.52
75646;BME280;64237;52.438;13.240;2023-03-31T07:28:49;99640.59;;;12.13;75.97
75646;BME280;64237;52.438;13.240;2023-03-31T07:31:16;99632.81;;;12.25;75.40
75646;BME280;64237;52.438;13.240;2023-03-31T07:33:42;99633.16;;;12.78;79.71
75646;BME280;64237;52.438;13.240;2023-03-31T07:36:08;99632.31;;;12.83;73.97
75646;BME280;64237;52.438;13.240;2023-03-31T07:38:33;99639.63;;;13.18;75.77
75646;BME280;64237;52.438;13.240;2023-03-31T07:40:59;99627.31;;;13.29;74.70
75646;BME280;64237;52.438;13.240;2023-03-31T07:43:24;99623.97;;;13.32;72.36
75646;BME280;64237;52.438;13.240;2023-03-31T07:45:50;99617.81;;;13.40;71.83
75646;BME280;64237;52.438;13.240;2023-03-31T07:48:15;99623.81;;;13.52;72.04
75646;BME280;64237;52.438;13.240;2023-03-31T07:50:40;99615.53;;;13.76;68.81
75646;BME280;64237;52.438;13.240;2023-03-31T07:53:07;99613.16;;;13.93;73.36
75646;BME280;64237;52.438;13.240;2023-03-31T07:55:32;99616.22;;;13.92;71.99
75646;BME280;64237;52.438;13.240;2023-03-31T07:57:58;99605.09;;;13.92;70.16
75646;BME280;64237;52.438;13.240;2023-03-31T08:00:23;99598.03;;;14.04;73.75
75646;BME280;64237;52.438;13.240;2023-03-31T08:02:49;99605.53;;;14.04;74.06
75646;BME280;64237;52.438;13.240;2023-03-31T08:05:17;99600.84;;;13.99;70.06
75646;BME280;64237;52.438;13.240;2023-03-31T08:07:46;99595.47;;;13.84;70.48
75646;BME280;64237;52.438;13.240;2023-03-31T08:10:16;99584.88;;;14.10;69.59
75646;BME280;64237;52.438;13.240;2023-03-31T08:12:42;99591.28;;;14.34;72.31
75646;BME280;64237;52.438;13.240;2023-03-31T08:15:08;99587.03;;;14.18;67.59
75646;BME280;64237;52.438;13.240;2023-03-31T08:17:34;99577.78;;;13.99;69.46
75646;BME280;64237;52.438;13.240;2023-03-31T08:19:59;99587.56;;;14.20;72.63
75646;BME280;64237;52.438;13.240;2023-03-31T08:22:25;99593.66;;;14.22;68.80
75646;BME280;64237;52.438;13.240;2023-03-31T08:24:50;99585.13;;;14.37;72.73
75646;BME280;64237;52.438;13.240;2023-03-31T08:27:16;99584.56;;;14.35;70.80
75646;BME280;64237;52.438;13.240;2023-03-31T08:29:41;99572.31;;;14.36;67.43
75646;BME280;64237;52.438;13.240;2023-03-31T08:32:07;99568.19;;;14.10;69.60
75646;BME280;64237;52.438;13.240;2023-03-31T08:34:32;99574.81;;;14.14;74.23
75646;BME280;64237;52.438;13.240;2023-03-31T08:36:58;99568.63;;;14.22;68.87
75646;BME280;64237;52.438;13.240;2023-03-31T08:39:23;99553.53;;;14.04;69.34
75646;BME280;64237;52.438;13.240;2023-03-31T08:46:50;99538.50;;;13.82;68.57
75646;BME280;64237;52.438;13.240;2023-03-31T08:49:18;99542.25;;;13.91;68.63
75646;BME280;64237;52.438;13.240;2023-03-31T08:51:48;99540.16;;;13.83;69.01
75646;BME280;64237;52.438;13.240;2023-03-31T08:56:55;99540.34;;;14.34;69.30
75646;BME280;64237;52.438;13.240;2023-03-31T08:59:26;99533.03;;;14.43;67.69
75646;BME280;64237;52.438;13.240;2023-03-31T09:02:04;99522.97;;;14.85;67.92
75646;BME280;64237;52.438;13.240;2023-03-31T09:09:50;99523.50;;;15.57;62.69
75646;BME280;64237;52.438;13.240;2023-03-31T09:12:22;99511.66;;;15.46;65.42
75646;BME280;64237;52.438;13.240;2023-03-31T09:14:59;99508.34;;;15.44;62.99
75646;BME280;64237;52.438;13.240;2023-03-31T09:17:32;99516.72;;;15.76;64.93
75646;BME280;64237;52.438;13.240;2023-03-31T09:20:04;99508.84;;;16.06;61.93
75646;BME280;64237;52.438;13.240;2023-03-31T09:22:38;99511.78;;;16.01;61.44
75646;BME280;64237;52.438;13.240;2023-03-31T09:25:10;99509.38;;;15.48;61.68
75646;BME280;64237;52.438;13.240;2023-03-31T09:27:39;99499.53;;;15.56;65.39
75646;BME280;64237;52.438;13.240;2023-03-31T09:32:38;99496.81;;;15.18;65.50
75646;BME280;64237;52.438;13.240;2023-03-31T09:35:19;99495.63;;;15.05;64.18
75646;BME280;64237;52.438;13.240;2023-03-31T09:37:46;99481.44;;;15.21;65.75
75646;BME280;64237;52.438;13.240;2023-03-31T09:40:17;99472.00;;;15.35;62.87
75646;BME280;64237;52.438;13.240;2023-03-31T09:42:45;99469.00;;;14.99;62.16
75646;BME280;64237;52.438;13.240;2023-03-31T09:45:16;99469.31;;;14.79;64.16
75646;BME280;64237;52.438;13.240;2023-03-31T09:47:44;99466.50;;;14.47;64.00
75646;BME280;64237;52.438;13.240;2023-03-31T09:50:11;99465.09;;;14.25;63.94
75646;BME280;64237;52.438;13.240;2023-03-31T09:52:45;99450.22;;;13.92;65.50
75646;BME280;64237;52.438;13.240;2023-03-31T09:55:19;99456.13;;;13.86;65.57
75646;BME280;64237;52.438;13.240;2023-03-31T09:57:44;99457.88;;;13.82;66.74
75646;BME280;64237;52.438;13.240;2023-03-31T10:05:28;99447.75;;;13.67;68.46
75646;BME280;64237;52.438;13.240;2023-03-31T10:11:09;99443.78;;;13.97;68.13
75646;BME280;64237;52.438;13.240;2023-03-31T10:16:04;99428.88;;;14.68;64.80
75646;BME280;64237;52.438;13.240;2023-03-31T10:18:38;99427.09;;;14.91;64.54
75646;BME280;64237;52.438;13.240;2023-03-31T10:21:06;99412.88;;;14.92;63.68
75646;BME280;64237;52.438;13.240;2023-03-31T10:23:45;99424.63;;;14.89;64.07
75646;BME280;64237;52.438;13.240;2023-03-31T10:26:15;99411.56;;;14.71;65.16
75646;BME280;64237;52.438;13.240;2023-03-31T10:28:41;99423.00;;;14.51;66.02
75646;BME280;64237;52.438;13.240;2023-03-31T10:31:07;99418.53;;;14.31;67.55
75646;BME280;64237;52.438;13.240;2023-03-31T10:33:38;99416.56;;;14.13;68.27
75646;BME280;64237;52.438;13.240;2023-03-31T10:36:11;99410.47;;;13.92;69.26
75646;BME280;64237;52.438;13.240;2023-03-31T10:38:42;99405.50;;;13.89;72.23
75646;BME280;64237;52.438;13.240;2023-03-31T10:41:09;99404.06;;;13.91;71.51
75646;BME280;64237;52.438;13.240;2023-03-31T10:46:01;99403.50;;;13.70;72.45
75646;BME280;64237;52.438;13.240;2023-03-31T10:48:34;99404.22;;;13.81;73.41
75646;BME280;64237;52.438;13.240;2023-03-31T10:53:48;99392.81;;;14.01;72.13
75646;BME280;64237;52.438;13.240;2023-03-31T11:07:12;99375.25;;;15.08;68.09
75646;BME280;64237;52.438;13.240;2023-03-31T11:12:39;99358.44;;;15.14;65.29
75646;BME280;64237;52.438;13.240;2023-03-31T11:15:24;99356.34;;;15.05;66.11
75646;BME280;64237;52.438;13.240;2023-03-31T11:18:05;99350.97;;;14.95;65.06
75646;BME280;64237;52.438;13.240;2023-03-31T11:25:57;99339.91;;;14.44;67.29
75646;BME280;64237;52.438;13.240;2023-03-31T11:42:46;99303.97;;;13.91;70.49
75646;BME280;64237;52.438;13.240;2023-03-31T11:45:20;99309.78;;;13.76;70.80
75646;BME280;64237;52.438;13.240;2023-03-31T11:47:50;99302.69;;;13.65;71.73
75646;BME280;64237;52.438;13.240;2023-03-31T11:50:24;99300.97;;;13.69;72.16
75646;BME280;64237;52.438;13.240;2023-03-31T11:52:57;99297.16;;;13.84;72.04
75646;BME280;64237;52.438;13.240;2023-03-31T11:55:26;99293.78;;;14.05;70.85
75646;BME280;64237;52.438;13.240;2023-03-31T11:57:57;99293.38;;;14.12;71.43
75646;BME280;64237;52.438;13.240;2023-03-31T12:00:27;99283.38;;;14.11;70.39
75646;BME280;64237;52.438;13.240;2023-03-31T12:05:30;99279.66;;;14.34;71.09
75646;BME280;64237;52.438;13.240;2023-03-31T12:08:12;99272.59;;;14.42;68.77
75646;BME280;64237;52.438;13.240;2023-03-31T12:10:52;99262.94;;;14.34;68.58
75646;BME280;64237;52.438;13.240;2023-03-31T12:16:03;99252.84;;;14.57;66.14
75646;BME280;64237;52.438;13.240;2023-03-31T12:18:33;99245.59;;;14.43;66.31
75646;BME280;64237;52.438;13.240;2023-03-31T12:21:02;99250.47;;;14.32;66.15
75646;BME280;64237;52.438;13.240;2023-03-31T12:23:33;99240.97;;;14.19;66.37
75646;BME280;64237;52.438;13.240;2023-03-31T12:26:26;99246.88;;;13.99;65.30
75646;BME280;64237;52.438;13.240;2023-03-31T12:29:04;99237.28;;;13.72;66.45
75646;BME280;64237;52.438;13.240;2023-03-31T12:31:32;99237.50;;;13.57;66.79
75646;BME280;64237;52.438;13.240;2023-03-31T12:34:05;99239.28;;;13.48;68.18
75646;BME280;64237;52.438;13.240;2023-03-31T12:42:21;99244.31;;;13.03;75.36
75646;BME280;64237;52.438;13.240;2023-03-31T12:55:36;99254.97;;;11.71;85.94
75646;BME280;64237;52.438;13.240;2023-03-31T13:01:05;99251.69;;;11.68;85.33
75646;BME280;64237;52.438;13.240;2023-03-31T13:09:48;99238.91;;;11.28;88.35
75646;BME280;64237;52.438;13.240;2023-03-31T13:11:48;99226.97;;;11.33;89.05
75646;BME280;64237;52.438;13.240;2023-03-31T13:16:46;99224.63;;;11.55;89.43
75646;BME280;64237;52.438;13.240;2023-03-31T13:19:27;99214.63;;;11.59;89.86
75646;BME280;64237;52.438;13.240;2023-03-31T13:21:56;99221.88;;;11.50;88.81
75646;BME280;64237;52.438;13.240;2023-03-31T13:24:24;99218.00;;;11.51;89.14
75646;BME280;64237;52.438;13.240;2023-03-31T13:26:51;99216.03;;;11.57;90.97
75646;BME280;64237;52.438;13.240;2023-03-31T13:29:42;99220.31;;;11.39;89.79
75646;BME280;64237;52.438;13.240;2023-03-31T13:34:43;99222.09;;;11.20;89.90
75646;BME280;64237;52.438;13.240;2023-03-31T13:42:51;99215.75;;;11.09;88.61
75646;BME280;64237;52.438;13.240;2023-03-31T13:45:37;99218.03;;;10.97;89.60
75646;BME280;64237;52.438;13.240;2023-03-31T13:51:14;99226.06;;;10.98;89.66
75646;BME280;64237;52.438;13.240;2023-03-31T14:05:28;99217.84;;;10.78;90.32
75646;BME280;64237;52.438;13.240;2023-03-31T14:07:55;99217.50;;;10.95;91.41
75646;BME280;64237;52.438;13.240;2023-03-31T14:10:29;99220.06;;;10.81;89.67
75646;BME280;64237;52.438;13.240;2023-03-31T14:13:13;99215.66;;;10.75;90.52
75646;BME280;64237;52.438;13.240;2023-03-31T14:15:52;99218.59;;;10.94;91.08
75646;BME280;64237;52.438;13.240;2023-03-31T14:21:11;99223.88;;;10.90;90.51
75646;BME280;64237;52.438;13.240;2023-03-31T14:34:38;99213.44;;;10.77;90.35
75646;BME280;64237;52.438;13.240;2023-03-31T14:37:11;99204.56;;;10.75;89.99
75646;BME280;64237;52.438;13.240;2023-03-31T14:39:43;99197.97;;;10.66;90.69
75646;BME280;64237;52.438;13.240;2023-03-31T14:42:12;99200.72;;;10.66;89.25
75646;BME280;64237;52.438;13.240;2023-03-31T14:44:38;99190.75;;;10.70;90.34
75646;BME280;64237;52.438;13.240;2023-03-31T14:47:15;99197.94;;;10.81;90.24
75646;BME280;64237;52.438;13.240;2023-03-31T14:49:43;99191.50;;;10.91;89.74
75646;BME280;64237;52.438;13.240;2023-03-31T14:52:17;99195.63;;;10.93;90.19
75646;BME280;64237;52.438;13.240;2023-03-31T14:54:46;99192.41;;;10.71;89.70
75646;BME280;64237;52.438;13.240;2023-03-31T14:57:16;99185.75;;;10.77;88.93
75646;BME280;64237;52.438;13.240;2023-03-31T14:59:46;99183.56;;;10.74;89.55
75646;BME280;64237;52.438;13.240;2023-03-31T15:02:16;99184.09;;;10.76;89.82
75646;BME280;64237;52.438;13.240;2023-03-31T15:04:46;99182.47;;;10.70;89.42
75646;BME280;64237;52.438;13.240;2023-03-31T15:07:14;99187.75;;;10.61;89.61
75646;BME280;64237;52.438;13.240;2023-03-31T15:09:44;99189.16;;;10.59;89.70
75646;BME280;64237;52.438;13.240;2023-03-31T15:12:14;99187.22;;;10.54;88.54
75646;BME280;64237;52.438;13.240;2023-03-31T15:14:49;99191.41;;;10.47;89.62
75646;BME280;64237;52.438;13.240;2023-03-31T15:17:21;99184.25;;;10.36;90.22
75646;BME280;64237;52.438;13.240;2023-03-31T15:19:52;99187.56;;;10.38;91.21
75646;BME280;64237;52.438;13.240;2023-03-31T15:22:18;99188.06;;;10.45;92.40
75646;BME280;64237;52.438;13.240;2023-03-31T15:24:44;99189.19;;;10.49;91.63
75646;BME280;64237;52.438;13.240;2023-03-31T15:29:45;99189.44;;;10.52;90.84
75646;BME280;64237;52.438;13.240;2023-03-31T15:34:43;99178.66;;;10.51;91.80
75646;BME280;64237;52.438;13.240;2023-03-31T15:37:10;99181.16;;;10.57;90.91
75646;BME280;64237;52.438;13.240;2023-03-31T15:39:36;99171.47;;;10.55;90.10
75646;BME280;64237;52.438;13.240;2023-03-31T15:42:04;99181.16;;;10.57;90.87
75646;BME280;64237;52.438;13.240;2023-03-31T15:44:43;99178.09;;;10.59;90.76
75646;BME280;64237;52.438;13.240;2023-03-31T15:47:35;99170.38;;;10.51;90.47
75646;BME280;64237;52.438;13.240;2023-03-31T15:52:36;99167.06;;;10.49;91.39
75646;BME280;64237;52.438;13.240;2023-03-31T15:55:29;99168.69;;;10.60;89.77
75646;BME280;64237;52.438;13.240;2023-03-31T15:57:57;99168.09;;;10.63;88.43
75646;BME280;64237;52.438;13.240;2023-03-31T16:03:04;99169.53;;;10.55;90.19
75646;BME280;64237;52.438;13.240;2023-03-31T16:05:52;99166.22;;;10.58;90.06
75646;BME280;64237;52.438;13.240;2023-03-31T16:11:20;99157.09;;;12.14;90.23
75646;BME280;64237;52.438;13.240;2023-03-31T16:13:51;99164.50;;;14.63;79.10